Time;durP1;ratioP1;P1;durP2;ratioP2;P2;SDS_P1;SDS_P2;PMS_P1;PMS_P2;Temp;Humidity;BMP_temperature;BMP_pressure;BME280_temperature;BME280_humidity;BME280_pressure;Samples;Min_cycle;Max_cycle;Signal;HPM_P1;HPM_P2
2022/04/22 00:05:38;;;;;;;19.42;12.85;;;;;;;7.39;67.00;97100.97;10118375;29;20057;-81
2022/04/22 00:16:41;;;;;;;16.08;11.77;;;;;;;7.35;67.03;97093.09;10129112;29;20088;-83
2022/04/22 00:22:04;;;;;;;16.50;11.40;;;;;;;7.28;66.77;97082.88;10111204;29;20033;-83
2022/04/22 00:27:25;;;;;;;15.93;11.48;;;;;;;7.21;66.66;97083.06;10123540;29;20084;-83
2022/04/22 00:32:47;;;;;;;17.00;12.40;;;;;;;7.19;67.14;97075.31;10110873;29;20074;-83
2022/04/22 00:38:09;;;;;;;16.30;11.43;;;;;;;7.22;67.14;97067.84;10098214;29;20056;-82
2022/04/22 00:43:42;;;;;;;18.98;12.98;;;;;;;7.16;66.99;97060.56;10110149;29;20061;-82
2022/04/22 00:49:04;;;;;;;17.58;11.80;;;;;;;7.14;67.17;97062.47;10097661;29;20108;-82
2022/04/22 00:54:26;;;;;;;17.50;12.38;;;;;;;7.17;66.79;97062.03;10107828;29;20041;-81
2022/04/22 00:59:47;;;;;;;18.55;12.15;;;;;;;7.18;67.01;97054.44;10110354;29;20028;-83
2022/04/22 01:10:51;;;;;;;14.38;11.13;;;;;;;7.11;67.06;97039.41;10114405;29;20029;-84
2022/04/22 01:16:13;;;;;;;18.02;11.70;;;;;;;7.09;67.18;97025.38;10109777;29;20056;-83
2022/04/22 01:21:35;;;;;;;15.40;11.25;;;;;;;6.98;67.33;97028.06;10109461;29;20041;-82
2022/04/22 01:26:57;;;;;;;16.15;11.23;;;;;;;6.86;67.31;97022.38;10093846;29;20073;-83
2022/04/22 01:32:19;;;;;;;19.55;12.07;;;;;;;6.71;67.57;97011.59;10096841;29;20040;-78
2022/04/22 01:37:43;;;;;;;16.67;11.45;;;;;;;6.58;67.65;97010.75;10109457;29;20033;-83
2022/04/22 01:43:05;;;;;;;17.42;12.18;;;;;;;6.51;68.50;97010.91;10109193;29;20052;-80
2022/04/22 01:48:27;;;;;;;17.65;12.13;;;;;;;6.44;68.68;97004.19;10108870;29;20124;-80
2022/04/22 01:53:49;;;;;;;16.38;11.10;;;;;;;6.38;68.21;96997.50;10111120;29;20041;-83
2022/04/22 01:59:11;;;;;;;16.52;11.57;;;;;;;6.30;68.46;96992.09;10129469;29;20067;-83
2022/04/22 02:04:33;;;;;;;16.02;11.40;;;;;;;6.26;68.77;96986.25;10116018;29;20122;-82
2022/04/22 02:09:55;;;;;;;15.65;11.27;;;;;;;6.20;68.69;96988.59;10103419;29;20036;-82
2022/04/22 02:15:18;;;;;;;17.08;10.88;;;;;;;6.12;68.77;96976.94;10103284;29;20041;-83
2022/04/22 02:20:40;;;;;;;16.33;11.65;;;;;;;6.04;68.48;96960.44;10115409;29;20041;-81
2022/04/22 02:26:01;;;;;;;17.75;11.57;;;;;;;6.00;69.12;96968.47;10125458;29;20119;-82
2022/04/22 02:31:23;;;;;;;17.10;10.88;;;;;;;5.98;69.02;96966.28;10128029;29;20052;-82
2022/04/22 02:36:45;;;;;;;15.65;10.68;;;;;;;5.97;68.81;96972.41;10115004;29;20025;-81
2022/04/22 02:47:47;;;;;;;16.58;10.90;;;;;;;5.88;69.00;96962.72;10118496;29;20051;-80
2022/04/22 02:53:09;;;;;;;17.05;11.95;;;;;;;5.80;70.08;96953.13;10113752;29;20033;-81
2022/04/22 02:58:31;;;;;;;15.45;11.82;;;;;;;5.75;69.58;96961.13;10085796;29;20036;-82
2022/04/22 03:03:53;;;;;;;16.27;11.85;;;;;;;5.72;69.80;96942.91;10112933;29;20049;-81
2022/04/22 03:09:15;;;;;;;16.33;11.55;;;;;;;5.70;69.51;96933.75;10110812;29;20078;-79
2022/04/22 03:14:38;;;;;;;17.40;11.52;;;;;;;5.67;69.81;96948.72;10113232;29;20035;-81
2022/04/22 03:19:59;;;;;;;19.27;11.88;;;;;;;5.62;69.75;96947.00;10109892;29;20074;-82
2022/04/22 03:25:22;;;;;;;16.35;11.73;;;;;;;5.59;70.32;96942.59;10100174;29;20025;-82
2022/04/22 03:30:43;;;;;;;17.63;11.68;;;;;;;5.59;69.75;96948.13;10116070;29;20021;-82
2022/04/22 03:36:05;;;;;;;19.25;12.00;;;;;;;5.55;70.06;96948.56;10099236;29;20030;-80
2022/04/22 03:41:27;;;;;;;17.70;12.43;;;;;;;5.51;69.82;96937.22;10092535;29;20044;-81
2022/04/22 03:46:48;;;;;;;15.90;11.77;;;;;;;5.47;70.62;96929.31;10090534;29;20070;-84
2022/04/22 03:52:09;;;;;;;18.55;13.00;;;;;;;5.42;70.96;96927.56;10094055;29;20029;-79
2022/04/22 04:03:12;;;;;;;18.75;12.18;;;;;;;5.50;70.88;96935.00;10139664;29;20196;-81
2022/04/22 04:08:35;;;;;;;20.83;12.90;;;;;;;5.51;71.06;96923.38;10111561;29;20044;-81
2022/04/22 04:24:58;;;;;;;18.70;13.35;;;;;;;5.78;70.91;96911.44;10136440;29;20029;-82
2022/04/22 04:30:20;;;;;;;19.33;13.80;;;;;;;5.85;70.94;96922.38;10110683;29;20036;-82
2022/04/22 04:35:46;;;;;;;20.65;13.23;;;;;;;5.95;70.45;96905.78;10587256;23;20023;-79
2022/04/22 04:41:09;;;;;;;18.45;13.20;;;;;;;6.09;70.34;96917.16;10073006;29;20037;-80
2022/04/22 04:46:30;;;;;;;18.65;13.25;;;;;;;6.29;70.44;96921.34;10101418;29;20037;-79
2022/04/22 04:51:52;;;;;;;17.98;13.32;;;;;;;6.60;70.21;96907.56;10087871;29;20049;-80
2022/04/22 04:57:14;;;;;;;17.67;12.88;;;;;;;6.99;69.71;96897.03;10112717;29;20051;-81
2022/04/22 05:02:39;;;;;;;18.17;12.88;;;;;;;7.31;68.57;96900.53;10098429;29;20030;-80
2022/04/22 05:08:02;;;;;;;17.50;12.65;;;;;;;7.80;68.80;96906.47;10104491;29;20051;-80
2022/04/22 05:13:24;;;;;;;20.90;12.80;;;;;;;8.45;67.67;96905.78;10098056;29;20097;-84
2022/04/22 05:18:45;;;;;;;18.00;12.25;;;;;;;9.44;68.24;96899.88;10090308;29;20052;-81
2022/04/22 05:24:07;;;;;;;16.48;11.90;;;;;;;15.25;63.10;96904.78;10092878;29;20042;-79
2022/04/22 05:35:44;;;;;;;14.00;11.38;;;;;;;23.36;44.82;96911.34;10602571;23;20287;-85
2022/04/22 05:41:06;;;;;;;13.85;10.25;;;;;;;25.34;39.01;96915.00;9998551;29;20042;-85
2022/04/22 05:46:26;;;;;;;12.40;10.05;;;;;;;27.47;35.70;96901.19;10011710;29;20041;-84
2022/04/22 05:51:47;;;;;;;12.70;9.73;;;;;;;28.73;32.15;96907.97;9999299;29;20046;-84
2022/04/22 05:57:08;;;;;;;9.48;8.40;;;;;;;30.07;26.59;96901.75;10023717;29;20493;-84
2022/04/22 06:02:30;;;;;;;9.18;7.88;;;;;;;30.51;24.79;96907.91;10025024;29;20063;-83
2022/04/22 06:10:31;;;;;;;8.95;8.05;;;;;;;31.50;21.38;96907.47;10023389;29;20042;-83
2022/04/22 06:13:33;;;;;;;9.20;8.30;;;;;;;31.59;20.08;96905.75;9985391;29;20052;-83
2022/04/22 06:18:54;;;;;;;8.25;7.40;;;;;;;30.37;19.32;96899.59;10006030;29;20049;-84
2022/04/22 06:24:15;;;;;;;9.43;7.90;;;;;;;32.89;17.94;96900.97;9980478;29;20057;-83
2022/04/22 06:29:36;;;;;;;8.33;7.40;;;;;;;34.75;15.76;96894.66;9980291;29;20299;-85
2022/04/22 06:34:57;;;;;;;8.38;7.55;;;;;;;34.35;14.67;96903.50;9978511;29;20413;-85
2022/04/22 06:45:59;;;;;;;8.52;7.25;;;;;;;36.44;13.17;96895.06;10033333;29;20363;-85
2022/04/22 06:51:23;;;;;;;8.57;7.10;;;;;;;35.02;13.46;96887.75;10001864;29;20117;-86
2022/04/22 06:56:45;;;;;;;7.72;7.03;;;;;;;33.84;12.90;96893.91;9999389;29;20486;-86
2022/04/22 07:02:07;;;;;;;9.80;7.38;;;;;;;25.33;17.85;96876.47;9999337;29;20046;-83
2022/04/22 07:07:28;;;;;;;11.18;8.00;;;;;;;20.78;22.22;96867.78;9996583;29;20409;-84
2022/04/22 07:12:49;;;;;;;9.88;8.75;;;;;;;17.31;27.87;96864.88;10022559;29;20050;-85
2022/04/22 07:18:13;;;;;;;14.18;8.82;;;;;;;15.65;29.42;96858.41;10008933;29;20114;-86
2022/04/22 07:23:34;;;;;;;10.73;9.05;;;;;;;17.20;31.42;96849.06;9998607;29;20050;-84
2022/04/22 07:28:57;;;;;;;11.23;8.77;;;;;;;17.30;30.42;96857.78;9985050;29;20042;-86
2022/04/22 07:34:18;;;;;;;11.40;9.97;;;;;;;14.89;34.28;96854.31;9985672;29;20125;-86
2022/04/22 07:39:40;;;;;;;15.63;9.65;;;;;;;13.78;36.45;96843.00;9985509;29;20057;-83
2022/04/22 07:56:52;;;;;;;15.30;10.73;;;;;;;11.25;43.25;96869.22;11643463;23;19955;-83
2022/04/22 08:02:14;;;;;;;14.43;11.07;;;;;;;10.77;45.71;96863.31;10119529;29;20069;-83
2022/04/22 08:07:36;;;;;;;17.33;11.55;;;;;;;10.58;46.79;96861.63;10116832;29;20056;-83
2022/04/22 08:12:57;;;;;;;14.95;11.02;;;;;;;10.65;46.76;96873.13;10117342;29;20053;-84
2022/04/22 08:18:18;;;;;;;13.85;9.50;;;;;;;10.65;47.64;96867.53;10116382;29;20055;-83
2022/04/22 08:23:40;;;;;;;13.95;9.73;;;;;;;10.65;47.63;96850.78;10116627;29;20096;-83
2022/04/22 08:29:02;;;;;;;15.13;10.32;;;;;;;10.76;48.25;96847.91;10116806;29;20085;-83
2022/04/22 08:34:24;;;;;;;13.90;10.43;;;;;;;10.73;48.40;96845.63;10116512;29;20057;-84
2022/04/22 08:39:46;;;;;;;15.40;11.00;;;;;;;10.74;47.83;96842.22;10129001;29;20053;-84
2022/04/22 08:45:08;;;;;;;16.00;10.27;;;;;;;10.78;48.62;96856.38;10091291;29;20049;-83
2022/04/22 08:50:30;;;;;;;18.00;10.93;;;;;;;10.62;49.94;96854.81;10128302;29;20045;-84
2022/04/22 08:55:57;;;;;;;19.77;11.52;;;;;;;10.83;49.71;96854.53;10102544;29;20061;-82
2022/04/22 09:01:19;;;;;;;14.93;11.52;;;;;;;10.95;49.72;96846.78;10103135;29;20036;-83
2022/04/22 09:06:41;;;;;;;15.07;10.77;;;;;;;10.91;49.84;96841.00;10089107;29;20060;-84
2022/04/22 09:12:07;;;;;;;14.30;11.43;;;;;;;10.97;50.32;96843.38;10114541;29;20060;-82
2022/04/22 09:17:30;;;;;;;16.30;11.52;;;;;;;10.97;50.22;96835.00;10102633;29;20045;-84
2022/04/22 09:22:52;;;;;;;15.63;12.32;;;;;;;10.98;50.68;96823.19;10126741;29;20060;-83
2022/04/22 09:28:14;;;;;;;16.80;12.95;;;;;;;10.94;51.29;96836.25;10113873;29;20045;-83
2022/04/22 09:33:41;;;;;;;15.85;12.32;;;;;;;10.96;51.06;96848.22;10115519;29;20033;-82
2022/04/22 09:44:57;;;;;;;18.17;12.85;;;;;;;11.25;51.86;96846.88;10128146;29;20072;-82
2022/04/22 09:50:21;;;;;;;17.25;12.90;;;;;;;11.48;51.81;96835.47;10096124;29;20061;-82
2022/04/22 09:55:47;;;;;;;;;;;;;;;11.58;52.53;96833.19;10110617;29;20052;-81
2022/04/22 10:01:08;;;;;;;17.50;12.98;;;;;;;11.88;52.02;96833.22;10126332;29;19923;-81
2022/04/22 10:06:30;;;;;;;17.00;12.68;;;;;;;11.87;52.05;96840.16;10113093;29;20049;-82
2022/04/22 10:11:54;;;;;;;19.88;14.30;;;;;;;11.82;51.75;96835.72;10115101;29;20086;-84
2022/04/22 10:17:15;;;;;;;18.98;11.80;;;;;;;12.13;51.39;96835.09;10148952;29;20049;-84
2022/04/22 10:22:37;;;;;;;17.27;12.57;;;;;;;12.39;50.79;96824.41;10108179;29;20049;-84
2022/04/22 10:28:07;;;;;;;16.38;12.05;;;;;;;12.28;50.93;96840.00;10125680;29;20052;-82
2022/04/22 10:33:45;;;;;;;15.55;12.02;;;;;;;12.08;50.63;96831.41;10121367;29;20040;-84
2022/04/22 10:39:06;;;;;;;16.95;12.07;;;;;;;11.98;50.64;96834.44;10119636;29;20064;-81
2022/04/22 10:50:26;;;;;;;16.13;11.13;;;;;;;11.82;50.29;96830.13;10123710;29;20062;-82
2022/04/22 10:55:47;;;;;;;18.10;10.88;;;;;;;11.68;50.99;96828.09;10130868;29;20124;-82
2022/04/22 11:01:31;;;;;;;15.80;11.77;;;;;;;11.96;50.80;96825.22;10112966;29;20048;-82
2022/04/22 11:06:53;;;;;;;13.73;11.63;;;;;;;12.24;50.36;96831.41;10117851;29;20053;-82
2022/04/22 11:12:40;;;;;;;14.13;11.00;;;;;;;12.26;50.53;96837.84;10117412;29;20093;-81
2022/04/22 11:18:01;;;;;;;15.68;11.10;;;;;;;12.27;51.74;96824.56;10142336;29;20049;-81
2022/04/22 11:23:22;;;;;;;12.35;10.02;;;;;;;12.51;51.32;96791.38;10116299;29;20069;-81
2022/04/22 11:28:47;;;;;;;9.77;8.05;;;;;;;12.75;51.05;96792.44;10117408;29;20052;-81
2022/04/22 11:34:14;;;;;;;12.05;8.70;;;;;;;12.85;50.06;96789.38;10117366;29;20049;-81
2022/04/22 11:39:35;;;;;;;10.10;7.85;;;;;;;12.89;49.67;96778.31;10102795;29;20093;-82
2022/04/22 11:45:04;;;;;;;8.43;7.00;;;;;;;12.87;48.20;96783.84;10136206;29;20076;-82
2022/04/22 11:50:28;;;;;;;11.30;6.63;;;;;;;12.93;48.75;96781.28;10125419;29;20049;-81
2022/04/22 11:55:49;;;;;;;9.73;7.32;;;;;;;12.92;48.20;96788.25;10124067;29;20096;-82
2022/04/22 12:06:50;;;;;;;11.88;8.75;;;;;;;12.75;47.82;96803.66;10128036;29;20057;-82
2022/04/22 12:12:14;;;;;;;;;;;;;;;12.62;48.18;96798.84;10111626;29;20057;-81
2022/04/22 12:17:35;;;;;;;15.07;10.48;;;;;;;12.61;48.63;96789.72;10129266;29;19915;-82
2022/04/22 12:22:57;;;;;;;10.98;9.73;;;;;;;12.66;48.59;96785.06;10113137;29;20065;-81
2022/04/22 12:28:26;;;;;;;14.57;9.95;;;;;;;12.72;48.34;96781.78;10104265;29;20040;-82
2022/04/22 12:34:02;;;;;;;12.13;9.80;;;;;;;12.79;48.47;96783.50;10093672;29;20032;-79
2022/04/22 12:39:42;;;;;;;14.60;10.73;;;;;;;12.72;48.46;96779.69;10084840;29;20048;-82
2022/04/22 12:56:28;;;;;;;15.38;11.00;;;;;;;12.67;49.55;96775.28;10118332;29;20040;-82
2022/04/22 13:01:50;;;;;;;16.35;11.30;;;;;;;12.85;49.77;96772.56;10124206;29;20049;-78
2022/04/22 13:07:12;;;;;;;13.88;10.20;;;;;;;13.12;49.36;96771.59;10090044;29;20037;-79
2022/04/22 13:12:39;;;;;;;12.77;10.45;;;;;;;13.22;49.15;96780.47;10104781;29;20093;-79
2022/04/22 13:18:00;;;;;;;13.38;10.38;;;;;;;13.51;49.70;96781.59;10106334;29;20032;-82
2022/04/22 13:23:21;;;;;;;13.45;10.52;;;;;;;13.70;49.01;96778.94;10114026;29;20035;-78
2022/04/22 13:28:42;;;;;;;15.68;11.00;;;;;;;13.61;49.26;96779.97;10087281;29;20026;-80
2022/04/22 13:34:03;;;;;;;13.25;10.05;;;;;;;13.54;49.62;96769.13;10089348;29;20037;-81
2022/04/22 13:39:24;;;;;;;13.80;11.60;;;;;;;13.49;49.56;96773.84;10110730;29;20081;-80
2022/04/22 13:56:06;;;;;;;17.45;11.38;;;;;;;13.38;49.21;96786.72;10116702;29;20045;-80
2022/04/22 14:01:27;;;;;;;13.95;11.15;;;;;;;13.32;49.37;96783.69;10092021;29;20045;-78
2022/04/22 14:06:48;;;;;;;15.70;11.38;;;;;;;13.28;49.33;96786.31;10111703;29;20039;-80
2022/04/22 14:12:09;;;;;;;19.08;12.10;;;;;;;13.35;48.92;96793.63;10125744;29;20025;-78
2022/04/22 14:17:31;;;;;;;16.48;11.40;;;;;;;13.44;49.18;96792.59;10116635;29;20033;-80
2022/04/22 14:22:52;;;;;;;20.60;12.80;;;;;;;13.56;48.70;96811.25;10115749;29;20029;-82
2022/04/22 14:28:13;;;;;;;16.83;11.88;;;;;;;13.64;48.60;96803.19;10141422;29;20025;-81
2022/04/22 14:33:34;;;;;;;15.00;12.07;;;;;;;13.57;48.80;96804.28;10140544;29;20025;-81
2022/04/22 14:38:55;;;;;;;15.40;12.63;;;;;;;13.61;48.42;96798.88;10114751;29;20039;-85
2022/04/22 14:44:16;;;;;;;14.82;12.40;;;;;;;13.58;48.82;96797.31;10127521;29;20045;-81
2022/04/22 14:49:38;;;;;;;16.75;12.32;;;;;;;13.54;49.34;96792.28;10109947;29;20055;-78
2022/04/22 14:54:59;;;;;;;15.82;11.73;;;;;;;13.54;49.55;96788.75;10085822;29;20041;-79
2022/04/22 15:00:20;;;;;;;15.00;11.80;;;;;;;13.57;50.23;96796.59;10108706;29;20065;-80
2022/04/22 15:05:41;;;;;;;17.67;11.98;;;;;;;13.62;50.16;96791.91;10082471;29;20049;-80
2022/04/22 15:11:02;;;;;;;16.13;12.30;;;;;;;13.59;49.57;96796.69;10079839;29;20052;-80
2022/04/22 15:16:26;;;;;;;17.20;10.82;;;;;;;13.43;49.53;96793.94;10144342;29;20051;-81
2022/04/22 15:27:27;;;;;;;16.15;11.15;;;;;;;13.14;48.53;96799.72;10130366;29;20045;-80
2022/04/22 15:32:47;;;;;;;13.45;10.93;;;;;;;13.04;48.72;96788.06;10120240;29;20049;-81
2022/04/22 15:38:09;;;;;;;14.20;10.35;;;;;;;13.10;48.74;96805.13;10102969;29;20028;-81
2022/04/22 15:43:29;;;;;;;14.52;10.85;;;;;;;13.21;47.64;96807.03;10118093;29;20049;-80
2022/04/22 15:48:51;;;;;;;12.75;8.98;;;;;;;13.33;47.73;96807.56;10109015;29;20049;-81
2022/04/22 15:54:11;;;;;;;12.52;9.60;;;;;;;13.21;47.37;96812.63;10121575;29;20029;-81
2022/04/22 15:59:33;;;;;;;15.20;9.93;;;;;;;12.95;46.82;96808.69;10130543;29;20064;-81
2022/04/22 16:04:54;;;;;;;13.60;9.68;;;;;;;12.78;47.18;96813.56;10118713;29;20045;-79
2022/04/22 16:10:14;;;;;;;14.43;9.15;;;;;;;12.81;47.44;96822.78;10104129;29;20040;-81
2022/04/22 16:15:35;;;;;;;14.05;9.75;;;;;;;12.76;47.51;96815.56;10123243;29;20037;-80
2022/04/22 16:20:56;;;;;;;16.27;11.10;;;;;;;12.77;47.49;96823.34;10134266;29;20053;-81
2022/04/22 16:26:18;;;;;;;13.15;10.00;;;;;;;12.75;47.55;96823.25;10095023;29;20053;-77
2022/04/22 16:31:39;;;;;;;13.82;10.75;;;;;;;12.54;47.97;96830.00;10094024;29;20033;-81
2022/04/22 16:37:01;;;;;;;11.68;9.48;;;;;;;12.37;47.93;96825.03;10099566;29;20049;-80
2022/04/22 16:42:24;;;;;;;;;;;;;;;12.29;48.26;96828.19;10097656;29;20045;-76
2022/04/22 16:47:46;;;;;;;14.43;9.77;;;;;;;12.06;48.75;96830.56;10098444;29;19931;-76
2022/04/22 16:53:07;;;;;;;12.23;9.65;;;;;;;11.99;48.90;96844.28;10084433;29;20052;-78
2022/04/22 16:58:28;;;;;;;13.68;10.00;;;;;;;11.92;49.22;96842.53;10091991;29;20064;-82
2022/04/22 17:03:49;;;;;;;12.50;9.75;;;;;;;11.88;49.81;96852.81;10104858;29;20033;-82
2022/04/22 17:09:10;;;;;;;13.77;9.80;;;;;;;11.87;50.23;96857.69;10119306;29;20057;-82
2022/04/22 17:25:51;;;;;;;15.45;11.02;;;;;;;11.74;51.13;96864.72;10082828;29;20056;-78
2022/04/22 17:31:11;;;;;;;13.90;11.25;;;;;;;11.71;51.06;96851.28;10087141;29;20540;-76
2022/04/22 17:36:36;;;;;;;17.05;11.68;;;;;;;11.66;52.12;96861.50;10083387;29;20089;-83
2022/04/22 17:41:58;;;;;;;14.65;11.15;;;;;;;11.64;51.34;96869.81;10108034;29;20044;-83
2022/04/22 17:47:19;;;;;;;15.65;11.68;;;;;;;11.56;52.06;96869.41;10114803;29;20073;-82
2022/04/22 17:52:41;;;;;;;16.98;11.25;;;;;;;11.49;52.83;96884.44;10080029;29;20048;-82
2022/04/22 17:58:02;;;;;;;15.77;11.55;;;;;;;11.31;52.98;96880.72;10093759;29;20057;-85
2022/04/22 18:03:23;;;;;;;13.68;10.63;;;;;;;11.17;52.98;96887.03;10120784;29;20047;-85
2022/04/22 18:08:45;;;;;;;13.27;10.38;;;;;;;11.18;54.01;96887.75;10094673;29;20048;-81
2022/04/22 18:16:12;;;;;;;17.05;11.00;;;;;;;11.12;53.49;96885.38;10111281;29;20045;-84
2022/04/22 18:19:47;;;;;;;14.52;11.15;;;;;;;10.98;54.29;96889.50;10116640;29;20040;-80
2022/04/22 18:25:08;;;;;;;14.63;11.63;;;;;;;10.86;54.12;96900.75;10100902;29;20037;-84
2022/04/22 18:30:29;;;;;;;17.50;12.35;;;;;;;10.81;55.20;96896.31;10106052;29;20033;-82
2022/04/22 18:35:50;;;;;;;14.15;11.35;;;;;;;10.69;54.36;96906.81;10118167;29;20049;-80
2022/04/22 18:41:12;;;;;;;17.48;12.18;;;;;;;10.73;55.99;96895.88;10874292;23;20041;-82
2022/04/22 18:46:34;;;;;;;17.30;12.85;;;;;;;10.69;55.75;96901.22;10043905;29;20055;-78
2022/04/22 18:51:55;;;;;;;15.60;12.73;;;;;;;10.71;55.22;96898.53;10036736;29;20045;-79
2022/04/22 18:57:15;;;;;;;13.85;11.48;;;;;;;10.76;55.90;96900.22;10077492;29;20025;-83
2022/04/22 19:02:40;;;;;;;18.77;13.57;;;;;;;10.78;55.88;96911.47;10055809;29;20045;-81
2022/04/22 19:08:01;;;;;;;18.05;13.57;;;;;;;10.80;55.99;96914.38;10058599;29;20050;-81
2022/04/22 19:13:27;;;;;;;18.40;13.20;;;;;;;10.83;56.01;96910.38;10028454;29;20113;-79
2022/04/22 19:18:48;;;;;;;21.40;14.95;;;;;;;10.87;56.11;96905.00;10012115;29;20505;-79
2022/04/22 19:24:09;;;;;;;19.73;15.52;;;;;;;10.89;56.47;96908.59;10006974;29;20053;-78
2022/04/22 19:29:29;;;;;;;14.88;13.05;;;;;;;10.89;56.21;96905.09;10007527;29;20045;-78
2022/04/22 19:34:50;;;;;;;18.83;14.02;;;;;;;10.84;56.86;96900.66;10017532;29;20464;-80
2022/04/22 19:45:58;;;;;;;19.85;15.18;;;;;;;10.79;57.20;96904.56;10061460;29;20037;-81
2022/04/22 19:51:19;;;;;;;21.02;14.45;;;;;;;10.78;57.11;96905.91;10025655;29;20060;-80
2022/04/22 19:56:40;;;;;;;20.58;16.00;;;;;;;10.80;57.38;96917.16;10056392;29;20050;-82
2022/04/22 20:02:01;;;;;;;19.00;15.43;;;;;;;10.76;57.62;96912.09;10033360;29;20070;-81
2022/04/22 20:07:22;;;;;;;20.13;15.27;;;;;;;10.78;57.83;96919.84;10047060;29;20040;-81
2022/04/22 20:12:43;;;;;;;21.77;15.82;;;;;;;10.75;57.82;96916.25;10015948;29;20077;-78
2022/04/22 20:18:04;;;;;;;19.20;16.40;;;;;;;10.76;58.13;96916.97;10038664;29;20054;-78
2022/04/22 20:23:25;;;;;;;24.75;18.67;;;;;;;10.76;58.43;96916.97;10010709;29;20050;-78
2022/04/22 20:28:47;;;;;;;22.48;16.75;;;;;;;10.83;58.27;96921.53;10007668;29;20078;-81
2022/04/22 20:34:07;;;;;;;23.65;17.42;;;;;;;10.88;58.60;96912.75;10023523;29;20053;-80
2022/04/22 20:45:08;;;;;;;28.77;19.67;;;;;;;10.87;58.82;96927.31;10006886;29;20046;-77
2022/04/22 20:50:31;;;;;;;27.15;20.40;;;;;;;10.81;60.24;96938.19;10004206;29;20046;-77
2022/04/22 20:55:51;;;;;;;28.73;20.65;;;;;;;10.69;59.58;96932.66;10021729;29;20053;-77
2022/04/22 21:01:12;;;;;;;28.27;20.10;;;;;;;10.57;61.47;96934.78;10032822;29;20049;-77
2022/04/22 21:06:35;;;;;;;24.55;18.20;;;;;;;10.47;60.63;96932.16;10024975;29;20045;-77
2022/04/22 21:11:56;;;;;;;23.65;16.90;;;;;;;10.40;61.64;96938.75;10019129;29;20049;-77
2022/04/22 21:17:18;;;;;;;19.48;15.52;;;;;;;10.24;61.57;96937.88;10017697;29;20048;-77
2022/04/22 21:22:41;;;;;;;20.40;14.80;;;;;;;10.22;61.95;96948.91;10000117;29;20045;-77
2022/04/22 21:28:02;;;;;;;20.42;14.93;;;;;;;10.09;62.49;96953.03;10015600;29;20038;-77
2022/04/22 21:33:22;;;;;;;19.10;14.90;;;;;;;10.00;62.97;96963.00;10005433;29;20041;-77
2022/04/22 21:38:43;;;;;;;16.83;13.40;;;;;;;9.93;63.42;96966.78;10017361;29;20046;-77
2022/04/22 21:44:04;;;;;;;18.38;14.30;;;;;;;9.90;63.49;96965.22;10010892;29;20054;-77
2022/04/22 21:49:26;;;;;;;18.25;13.65;;;;;;;9.89;63.89;96966.56;10030996;29;20057;-77
2022/04/22 21:54:47;;;;;;;17.42;13.57;;;;;;;9.85;63.78;96971.19;10032938;29;20458;-77
2022/04/22 22:00:14;;;;;;;16.73;13.10;;;;;;;9.83;63.84;96968.25;10014393;29;20053;-77
2022/04/22 22:05:37;;;;;;;18.05;13.38;;;;;;;9.80;63.88;96973.00;10025915;29;20033;-77
2022/04/22 22:11:07;;;;;;;18.42;12.57;;;;;;;9.70;64.46;96975.19;10029443;29;20053;-77
2022/04/22 22:16:28;;;;;;;19.58;12.75;;;;;;;9.69;64.54;96979.31;10044181;29;20033;-77
2022/04/22 22:21:50;;;;;;;18.35;12.13;;;;;;;9.65;64.31;96988.19;10036937;29;20049;-77
2022/04/22 22:27:11;;;;;;;14.35;11.52;;;;;;;9.63;64.96;96985.25;10033140;29;20055;-77
2022/04/22 22:32:31;;;;;;;14.73;11.15;;;;;;;9.60;64.65;96978.13;10057038;29;20052;-77
2022/04/22 22:37:52;;;;;;;14.88;11.65;;;;;;;9.54;65.09;96986.09;10043880;29;20045;-77
2022/04/22 22:43:13;;;;;;;16.08;10.80;;;;;;;9.55;65.05;96989.63;10069279;29;20065;-77
2022/04/22 22:48:35;;;;;;;12.23;10.15;;;;;;;9.42;65.41;96983.31;10040799;29;20504;-77
2022/04/22 22:53:56;;;;;;;11.38;9.18;;;;;;;9.40;65.32;96974.84;10056706;29;20041;-77
2022/04/22 22:59:18;;;;;;;11.77;8.82;;;;;;;9.44;65.53;96979.94;10067801;29;20409;-77
2022/04/22 23:04:39;;;;;;;11.82;9.10;;;;;;;9.45;65.47;96976.53;10041654;29;20049;-77
2022/04/22 23:10:01;;;;;;;11.60;8.90;;;;;;;9.49;65.26;96978.13;10041676;29;20049;-77
2022/04/22 23:15:23;;;;;;;12.52;9.20;;;;;;;9.48;65.32;96979.47;10028998;29;20053;-77
2022/04/22 23:20:44;;;;;;;13.25;9.30;;;;;;;9.41;65.95;96976.31;10054313;29;20045;-77
2022/04/22 23:26:05;;;;;;;11.07;9.00;;;;;;;9.40;65.44;96974.84;10041353;29;20049;-77
2022/04/22 23:31:26;;;;;;;9.77;8.15;;;;;;;9.37;65.40;96980.94;10054008;29;20054;-77
2022/04/22 23:36:48;;;;;;;11.68;9.15;;;;;;;9.28;65.54;96979.72;10055354;29;20045;-77
2022/04/22 23:42:10;;;;;;;10.60;8.55;;;;;;;9.17;65.72;96969.31;10041155;29;20137;-77
2022/04/22 23:47:31;;;;;;;12.00;9.15;;;;;;;9.13;65.89;96961.41;10040146;29;20050;-77
2022/04/22 23:52:52;;;;;;;9.82;8.18;;;;;;;9.18;65.56;96956.81;10052068;29;20125;-77
2022/04/22 23:58:15;;;;;;;14.63;9.93;;;;;;;9.13;65.21;96960.69;10038762;29;20435;-78
